createdAt,value
2023-05-09T00:00:46.512Z,17.58
2023-05-09T00:01:46.604Z,17.56
2023-05-09T00:02:46.502Z,17.59
2023-05-09T00:03:46.509Z,17.61
2023-05-09T00:04:46.552Z,17.40
2023-05-09T00:05:46.572Z,17.25
2023-05-09T00:06:46.669Z,17.15
2023-05-09T00:07:46.739Z,17.24
2023-05-09T00:08:46.792Z,17.08
2023-05-09T00:09:46.812Z,17.07
2023-05-09T00:10:46.797Z,17.22
2023-05-09T00:11:46.921Z,17.34
2023-05-09T00:12:46.945Z,17.40
2023-05-09T00:13:46.990Z,17.40
2023-05-09T00:14:47.115Z,17.44
2023-05-09T00:15:47.043Z,17.49
2023-05-09T00:16:47.149Z,17.56
2023-05-09T00:17:47.209Z,17.57
2023-05-09T00:18:47.201Z,17.50
2023-05-09T00:19:47.234Z,17.50
2023-05-09T00:20:47.197Z,17.52
2023-05-09T00:21:47.226Z,17.40
2023-05-09T00:22:47.240Z,17.31
2023-05-09T00:23:47.227Z,17.35
2023-05-09T00:24:47.302Z,17.39
2023-05-09T00:25:47.321Z,17.35
2023-05-09T00:26:47.318Z,17.40
2023-05-09T00:27:47.386Z,17.41
2023-05-09T00:28:47.448Z,17.24
2023-05-09T00:29:47.431Z,17.27
2023-05-09T00:30:47.533Z,17.37
2023-05-09T00:31:47.503Z,17.42
2023-05-09T00:32:47.547Z,17.47
2023-05-09T00:33:47.593Z,17.52
2023-05-09T00:34:47.574Z,17.56
2023-05-09T00:35:47.641Z,17.59
2023-05-09T00:36:47.655Z,17.57
2023-05-09T00:37:47.653Z,17.51
2023-05-09T00:38:47.669Z,17.52
2023-05-09T00:39:47.720Z,17.53
2023-05-09T00:40:47.777Z,17.48
2023-05-09T00:41:47.751Z,17.42
2023-05-09T00:42:47.776Z,17.48
2023-05-09T00:43:47.801Z,17.50
2023-05-09T00:44:47.805Z,17.44
2023-05-09T00:45:47.909Z,17.50
2023-05-09T00:46:47.931Z,17.49
2023-05-09T00:47:47.956Z,17.47
2023-05-09T00:48:47.831Z,17.50
2023-05-09T00:49:47.892Z,17.51
2023-05-09T00:50:47.840Z,17.55
2023-05-09T00:51:47.851Z,17.61
2023-05-09T00:52:47.924Z,17.57
2023-05-09T00:53:47.858Z,17.48
2023-05-09T00:54:47.904Z,17.38
2023-05-09T00:55:47.936Z,17.28
2023-05-09T00:56:47.887Z,17.22
2023-05-09T00:57:47.919Z,17.18
2023-05-09T00:58:47.937Z,17.20
2023-05-09T00:59:47.943Z,17.29
2023-05-09T01:00:48.228Z,17.31
2023-05-09T01:01:48.062Z,17.15
2023-05-09T01:02:48.131Z,17.23
2023-05-09T01:03:48.035Z,17.07
2023-05-09T01:04:48.016Z,17.08
2023-05-09T01:05:47.987Z,16.98
2023-05-09T01:06:48.019Z,16.92
2023-05-09T01:07:47.963Z,16.96
2023-05-09T01:08:47.967Z,16.99
2023-05-09T01:09:48.032Z,16.97
2023-05-09T01:10:48.034Z,16.79
2023-05-09T01:11:48.051Z,16.78
2023-05-09T01:12:48.057Z,16.95
2023-05-09T01:13:48.050Z,17.12
2023-05-09T01:14:48.045Z,17.26
2023-05-09T01:15:48.140Z,17.24
2023-05-09T01:16:48.139Z,17.27
2023-05-09T01:17:48.175Z,17.34
2023-05-09T01:18:48.258Z,17.32
2023-05-09T01:19:48.275Z,17.16
2023-05-09T01:20:48.179Z,17.22
2023-05-09T01:21:48.223Z,17.24
2023-05-09T01:22:48.248Z,17.29
2023-05-09T01:23:48.247Z,17.28
2023-05-09T01:24:48.253Z,17.21
2023-05-09T01:25:48.318Z,17.18
2023-05-09T01:26:48.335Z,17.00
2023-05-09T01:27:48.299Z,16.88
2023-05-09T01:28:48.377Z,16.88
2023-05-09T01:29:48.389Z,16.90
2023-05-09T01:30:48.396Z,17.00
2023-05-09T01:31:48.489Z,17.09
2023-05-09T01:32:48.428Z,17.16
2023-05-09T01:33:48.381Z,17.09
2023-05-09T01:34:48.489Z,17.00
2023-05-09T01:35:48.436Z,17.05
2023-05-09T01:36:48.433Z,17.14
2023-05-09T01:37:48.434Z,17.13
2023-05-09T01:38:48.487Z,17.11
2023-05-09T01:39:48.484Z,17.12
2023-05-09T01:40:48.484Z,17.17
2023-05-09T01:41:48.504Z,17.28
2023-05-09T01:42:48.520Z,17.29
2023-05-09T01:43:48.520Z,17.17
2023-05-09T01:44:48.518Z,17.24
2023-05-09T01:45:48.538Z,17.15
2023-05-09T01:46:48.558Z,16.95
2023-05-09T01:47:48.612Z,16.94
2023-05-09T01:48:48.548Z,17.08
2023-05-09T01:49:48.542Z,17.16
2023-05-09T01:50:48.681Z,17.14
2023-05-09T01:51:48.534Z,17.16
2023-05-09T01:52:48.604Z,17.12
2023-05-09T01:53:48.605Z,17.00
2023-05-09T01:54:48.636Z,17.08
2023-05-09T01:55:48.633Z,17.15
2023-05-09T01:56:48.605Z,17.23
2023-05-09T01:57:48.615Z,17.32
2023-05-09T01:58:48.600Z,17.37
2023-05-09T01:59:48.626Z,17.35
2023-05-09T02:00:48.683Z,17.27
2023-05-09T02:01:48.666Z,17.27
2023-05-09T02:02:48.870Z,17.20
2023-05-09T02:03:48.628Z,17.05
2023-05-09T02:04:48.616Z,17.11
2023-05-09T02:05:48.644Z,17.16
2023-05-09T02:06:48.738Z,17.16
2023-05-09T02:07:48.688Z,17.20
2023-05-09T02:08:48.668Z,17.21
2023-05-09T02:09:48.673Z,17.30
2023-05-09T02:10:48.642Z,17.39
2023-05-09T02:11:48.706Z,17.49
2023-05-09T02:12:48.763Z,17.55
2023-05-09T02:13:48.647Z,17.47
2023-05-09T02:14:48.690Z,17.46
2023-05-09T02:15:48.694Z,17.43
2023-05-09T02:16:48.703Z,17.26
2023-05-09T02:17:48.709Z,17.14
2023-05-09T02:18:48.690Z,17.25
2023-05-09T02:19:48.728Z,17.35
2023-05-09T02:20:48.758Z,17.43
2023-05-09T02:21:48.743Z,17.46
2023-05-09T02:22:48.866Z,17.40
2023-05-09T02:23:48.875Z,17.33
2023-05-09T02:24:48.971Z,17.37
2023-05-09T02:25:48.966Z,17.42
2023-05-09T02:26:49.011Z,17.37
2023-05-09T02:27:49.048Z,17.42
2023-05-09T02:28:49.064Z,17.45
2023-05-09T02:29:49.160Z,17.50
2023-05-09T02:30:49.222Z,17.54
2023-05-09T02:31:49.305Z,17.44
2023-05-09T02:32:49.309Z,17.37
2023-05-09T02:33:49.327Z,17.29
2023-05-09T02:34:49.312Z,17.24
2023-05-09T02:35:49.352Z,17.09
2023-05-09T02:36:49.378Z,16.94
2023-05-09T02:37:49.417Z,16.78
2023-05-09T02:38:49.490Z,16.78
2023-05-09T02:39:49.435Z,16.90
2023-05-09T02:40:50.976Z,16.93
2023-05-09T02:41:49.506Z,16.95
2023-05-09T02:42:49.463Z,17.07
2023-05-09T02:43:49.472Z,17.13
2023-05-09T02:44:49.453Z,17.21
2023-05-09T02:45:49.439Z,17.25
2023-05-09T02:46:49.455Z,17.24
2023-05-09T02:47:49.513Z,17.25
2023-05-09T02:48:49.449Z,17.24
2023-05-09T02:49:49.410Z,17.06
2023-05-09T02:50:49.421Z,17.08
2023-05-09T02:51:49.425Z,17.18
2023-05-09T02:52:49.397Z,17.18
2023-05-09T02:53:49.388Z,17.17
2023-05-09T02:54:49.488Z,17.13
2023-05-09T02:55:49.405Z,16.94
2023-05-09T02:56:49.408Z,16.81
2023-05-09T02:57:54.101Z,16.66
2023-05-09T02:58:50.361Z,16.63
2023-05-09T02:59:49.335Z,16.54
2023-05-09T03:00:49.353Z,16.56
2023-05-09T03:01:49.401Z,16.70
2023-05-09T03:02:49.417Z,16.86
2023-05-09T03:03:49.424Z,17.00
2023-05-09T03:04:49.344Z,16.97
2023-05-09T03:05:49.330Z,17.10
2023-05-09T03:06:49.323Z,17.08
2023-05-09T03:07:49.320Z,17.10
2023-05-09T03:08:49.291Z,17.16
2023-05-09T03:09:49.349Z,17.16
2023-05-09T03:10:49.406Z,17.21
2023-05-09T03:11:49.304Z,17.15
2023-05-09T03:12:49.345Z,16.96
2023-05-09T03:13:49.325Z,16.71
2023-05-09T03:14:49.376Z,16.60
2023-05-09T03:15:49.473Z,16.70
2023-05-09T03:16:49.516Z,16.85
2023-05-09T03:17:49.587Z,16.95
2023-05-09T03:18:49.568Z,17.02
2023-05-09T03:19:49.608Z,17.10
2023-05-09T03:20:49.723Z,17.17
2023-05-09T03:21:49.701Z,17.25
2023-05-09T03:22:49.790Z,17.31
2023-05-09T03:23:49.815Z,17.28
2023-05-09T03:24:49.866Z,17.13
2023-05-09T03:25:49.935Z,17.02
2023-05-09T03:26:49.974Z,16.93
2023-05-09T03:27:50.047Z,17.00
2023-05-09T03:28:50.023Z,17.02
2023-05-09T03:29:50.059Z,17.00
2023-05-09T03:30:50.076Z,16.81
2023-05-09T03:31:50.197Z,16.67
2023-05-09T03:32:50.188Z,16.80
2023-05-09T03:33:50.161Z,16.93
2023-05-09T03:34:50.257Z,17.08
2023-05-09T03:35:50.336Z,17.16
2023-05-09T03:36:50.346Z,17.24
2023-05-09T03:37:50.415Z,17.28
2023-05-09T03:38:50.445Z,17.31
2023-05-09T03:39:50.489Z,17.36
2023-05-09T03:40:50.469Z,17.40
2023-05-09T03:41:50.476Z,17.42
2023-05-09T03:42:51.097Z,17.42
2023-05-09T03:43:50.619Z,17.43
2023-05-09T03:44:50.669Z,17.38
2023-05-09T03:45:50.669Z,17.31
2023-05-09T03:46:50.846Z,17.36
2023-05-09T03:47:50.814Z,17.35
2023-05-09T03:48:50.809Z,17.42
2023-05-09T03:49:50.866Z,17.44
2023-05-09T03:50:50.875Z,17.38
2023-05-09T03:51:50.964Z,17.21
2023-05-09T03:52:50.891Z,17.10
2023-05-09T03:53:50.981Z,17.11
2023-05-09T03:54:50.957Z,17.16
2023-05-09T03:55:50.957Z,17.15
2023-05-09T03:56:50.993Z,17.15
2023-05-09T03:57:51.038Z,17.22
2023-05-09T03:58:51.184Z,17.25
2023-05-09T03:59:51.136Z,17.19
2023-05-09T04:00:51.212Z,17.19
2023-05-09T04:01:52.465Z,17.27
2023-05-09T04:02:51.417Z,17.14
2023-05-09T04:03:51.441Z,17.21
2023-05-09T04:04:51.347Z,17.29
2023-05-09T04:05:51.363Z,17.25
2023-05-09T04:06:52.570Z,17.22
2023-05-09T04:07:51.384Z,16.99
2023-05-09T04:08:51.472Z,16.92
2023-05-09T04:09:51.497Z,17.02
2023-05-09T04:10:51.565Z,17.12
2023-05-09T04:11:51.579Z,17.11
2023-05-09T04:12:51.631Z,17.14
2023-05-09T04:13:51.636Z,17.08
2023-05-09T04:14:51.778Z,17.02
2023-05-09T04:15:51.746Z,17.07
2023-05-09T04:16:51.768Z,17.11
2023-05-09T04:17:51.854Z,17.19
2023-05-09T04:18:51.852Z,17.25
2023-05-09T04:19:51.941Z,17.28
2023-05-09T04:20:51.950Z,17.20
2023-05-09T04:21:52.044Z,17.00
2023-05-09T04:22:52.078Z,17.05
2023-05-09T04:23:52.118Z,17.12
2023-05-09T04:24:52.137Z,17.18
2023-05-09T04:25:52.206Z,17.26
2023-05-09T04:26:52.206Z,17.28
2023-05-09T04:27:52.329Z,17.29
2023-05-09T04:28:52.298Z,17.29
2023-05-09T04:29:52.383Z,17.28
2023-05-09T04:30:52.619Z,17.11
2023-05-09T04:31:52.620Z,16.85
2023-05-09T04:32:52.580Z,16.76
2023-05-09T04:33:52.551Z,16.87
2023-05-09T04:34:52.597Z,16.98
2023-05-09T04:35:52.666Z,17.09
2023-05-09T04:36:52.720Z,17.19
2023-05-09T04:37:52.793Z,17.02
2023-05-09T04:38:52.807Z,16.97
2023-05-09T04:39:52.882Z,17.02
2023-05-09T04:40:52.854Z,17.09
2023-05-09T04:41:52.937Z,17.12
2023-05-09T04:42:52.982Z,16.91
2023-05-09T04:43:53.050Z,16.91
2023-05-09T04:44:53.102Z,16.86
2023-05-09T04:45:53.162Z,16.92
2023-05-09T04:46:53.209Z,16.91
2023-05-09T04:47:53.228Z,16.90
2023-05-09T04:48:53.189Z,16.98
2023-05-09T04:49:53.207Z,16.83
2023-05-09T04:50:53.279Z,16.63
2023-05-09T04:51:54.467Z,16.57
2023-05-09T04:52:53.386Z,16.60
2023-05-09T04:53:53.379Z,16.66
2023-05-09T04:54:53.401Z,16.79
2023-05-09T04:55:53.443Z,16.73
2023-05-09T04:56:57.941Z,16.74
2023-05-09T04:57:54.478Z,16.76
2023-05-09T04:58:53.474Z,16.90
2023-05-09T04:59:53.465Z,16.81
2023-05-09T05:02:13.181Z,16.94
2023-05-09T05:03:13.094Z,16.97
2023-05-09T05:04:13.475Z,17.06
2023-05-09T05:05:13.113Z,17.14
2023-05-09T05:06:13.109Z,17.23
2023-05-09T05:07:13.437Z,17.25
2023-05-09T05:08:13.106Z,17.30
2023-05-09T05:09:13.073Z,17.37
2023-05-09T05:10:13.042Z,17.42
2023-05-09T05:11:13.044Z,17.37
2023-05-09T05:12:13.068Z,17.37
2023-05-09T05:13:13.127Z,17.42
2023-05-09T05:14:13.029Z,17.47
2023-05-09T05:15:13.422Z,17.54
2023-05-09T05:16:13.078Z,17.61
2023-05-09T05:17:13.016Z,17.66
2023-05-09T05:18:13.095Z,17.73
2023-05-09T05:19:12.989Z,17.76
2023-05-09T05:20:13.069Z,17.76
2023-05-09T05:21:13.062Z,17.74
2023-05-09T05:22:13.072Z,17.75
2023-05-09T05:23:13.000Z,17.77
2023-05-09T05:24:13.332Z,17.76
2023-05-09T05:25:13.134Z,17.78
2023-05-09T05:26:12.986Z,17.82
2023-05-09T05:27:12.965Z,17.88
2023-05-09T05:28:13.328Z,17.82
2023-05-09T05:29:13.093Z,17.83
2023-05-09T05:30:13.249Z,17.88
2023-05-09T05:31:12.957Z,17.90
2023-05-09T05:32:13.062Z,17.91
2023-05-09T05:33:12.901Z,17.91
2023-05-09T05:34:12.964Z,17.89
2023-05-09T05:35:13.840Z,17.88
2023-05-09T05:36:12.949Z,17.75
2023-05-09T05:37:13.009Z,17.78
2023-05-09T05:38:12.948Z,17.87
2023-05-09T05:39:13.329Z,17.98
2023-05-09T05:40:13.296Z,18.02
2023-05-09T05:41:12.918Z,18.04
2023-05-09T05:42:13.410Z,18.10
2023-05-09T05:43:13.883Z,18.18
2023-05-09T05:44:12.948Z,18.12
2023-05-09T05:45:13.123Z,18.08
2023-05-09T05:47:40.575Z,18.12
2023-05-09T05:48:32.940Z,18.20
2023-05-09T05:49:32.955Z,18.28
2023-05-09T05:50:32.923Z,18.32
2023-05-09T05:51:32.882Z,18.36
2023-05-09T05:52:32.899Z,18.41
2023-05-09T05:53:32.987Z,18.46
2023-05-09T05:54:32.979Z,18.55
2023-05-09T05:55:33.054Z,18.62
2023-05-09T05:56:33.014Z,18.65
2023-05-09T05:57:32.993Z,18.67
2023-05-09T05:58:33.032Z,18.73
2023-05-09T05:59:33.039Z,18.77
2023-05-09T06:00:33.029Z,18.77
2023-05-09T06:01:33.029Z,18.76
2023-05-09T06:02:33.224Z,18.79
2023-05-09T06:03:33.190Z,18.82
2023-05-09T06:04:33.986Z,18.90
2023-05-09T06:05:33.297Z,18.93
2023-05-09T06:06:33.299Z,18.97
2023-05-09T06:07:33.543Z,18.99
2023-05-09T06:08:33.343Z,19.01
2023-05-09T06:09:33.416Z,18.99
2023-05-09T06:10:33.457Z,18.90
2023-05-09T06:11:33.501Z,18.89
2023-05-09T06:12:33.545Z,18.92
2023-05-09T06:13:33.536Z,18.83
2023-05-09T06:14:33.606Z,18.75
2023-05-09T06:15:33.621Z,18.79
2023-05-09T06:16:33.667Z,18.68
2023-05-09T06:17:33.767Z,18.72
2023-05-09T06:18:33.749Z,18.81
2023-05-09T06:19:33.824Z,18.89
2023-05-09T06:20:33.868Z,18.89
2023-05-09T06:21:33.868Z,18.73
2023-05-09T06:22:33.860Z,18.78
2023-05-09T06:23:33.859Z,18.64
2023-05-09T06:24:36.277Z,18.61
2023-05-09T06:25:33.888Z,18.70
2023-05-09T06:26:33.889Z,18.68
2023-05-09T06:27:34.027Z,18.75
2023-05-09T06:28:33.859Z,18.54
2023-05-09T06:29:33.846Z,18.49
2023-05-09T06:30:33.837Z,18.60
2023-05-09T06:31:34.001Z,18.73
2023-05-09T06:32:33.913Z,18.72
2023-05-09T06:33:33.822Z,18.69
2023-05-09T06:34:33.802Z,18.58
2023-05-09T06:35:33.776Z,18.58
2023-05-09T06:36:33.796Z,18.65
2023-05-09T06:37:34.112Z,18.76
2023-05-09T06:38:33.997Z,18.88
2023-05-09T06:39:33.860Z,18.94
2023-05-09T06:40:33.835Z,18.98
2023-05-09T06:41:33.719Z,18.93
2023-05-09T06:42:34.029Z,18.89
2023-05-09T06:43:33.872Z,18.72
2023-05-09T06:44:33.729Z,18.72
2023-05-09T06:45:33.788Z,18.81
2023-05-09T06:46:33.846Z,18.82
2023-05-09T06:47:34.031Z,18.89
2023-05-09T06:48:33.737Z,18.88
2023-05-09T06:49:33.725Z,18.82
2023-05-09T06:50:33.667Z,18.77
2023-05-09T06:51:33.730Z,18.83
2023-05-09T06:52:33.754Z,18.93
2023-05-09T06:53:34.083Z,19.04
2023-05-09T06:54:33.720Z,18.97
2023-05-09T06:55:33.677Z,18.98
2023-05-09T06:56:33.729Z,19.04
2023-05-09T06:57:33.645Z,19.07
2023-05-09T06:58:34.056Z,19.17
2023-05-09T06:59:33.695Z,19.24
2023-05-09T07:00:33.704Z,19.27
2023-05-09T07:01:33.716Z,19.20
2023-05-09T07:02:33.676Z,19.15
2023-05-09T07:03:33.717Z,18.88
2023-05-09T07:04:33.653Z,18.58
2023-05-09T07:05:33.712Z,18.50
2023-05-09T07:06:33.626Z,18.58
2023-05-09T07:07:33.639Z,18.67
2023-05-09T07:08:34.731Z,18.58
2023-05-09T07:09:33.656Z,18.49
2023-05-09T07:10:33.612Z,18.52
2023-05-09T07:11:33.626Z,18.51
2023-05-09T07:12:33.592Z,18.53
2023-05-09T07:13:34.120Z,18.55
2023-05-09T07:14:33.556Z,18.62
2023-05-09T07:15:41.508Z,18.67
2023-05-09T07:16:37.249Z,18.70
2023-05-09T07:17:33.655Z,18.68
2023-05-09T07:18:34.049Z,18.82
2023-05-09T07:19:33.631Z,18.89
2023-05-09T07:20:33.538Z,18.86
2023-05-09T07:21:33.484Z,18.92
2023-05-09T07:22:35.539Z,19.04
2023-05-09T07:23:33.756Z,19.09
2023-05-09T07:24:33.656Z,19.01
2023-05-09T07:25:33.558Z,19.02
2023-05-09T07:26:33.485Z,19.13
2023-05-09T07:27:33.495Z,19.22
2023-05-09T07:28:34.095Z,19.21
2023-05-09T07:29:33.490Z,19.33
2023-05-09T07:30:33.486Z,19.42
2023-05-09T07:31:35.993Z,19.42
2023-05-09T07:32:33.500Z,19.43
2023-05-09T07:33:33.549Z,19.48
2023-05-09T07:34:33.578Z,19.57
2023-05-09T07:35:33.380Z,19.54
2023-05-09T07:36:35.509Z,19.61
2023-05-09T07:37:33.456Z,19.54
2023-05-09T07:38:33.558Z,19.48
2023-05-09T07:39:33.450Z,19.51
2023-05-09T07:40:33.365Z,19.39
2023-05-09T07:41:33.445Z,19.25
2023-05-09T07:42:33.383Z,19.30
2023-05-09T07:43:33.682Z,19.29
2023-05-09T07:44:33.369Z,19.45
2023-05-09T07:45:33.432Z,19.47
2023-05-09T07:46:33.350Z,19.51
2023-05-09T07:47:33.395Z,19.54
2023-05-09T07:48:33.616Z,19.51
2023-05-09T07:49:33.406Z,19.61
2023-05-09T07:50:33.346Z,19.71
2023-05-09T07:51:33.314Z,19.71
2023-05-09T07:52:33.355Z,19.68
2023-05-09T07:53:33.437Z,19.48
2023-05-09T07:54:33.530Z,19.36
2023-05-09T07:55:33.523Z,19.42
2023-05-09T07:56:33.564Z,19.44
2023-05-09T07:57:33.631Z,19.52
2023-05-09T07:58:33.670Z,19.62
2023-05-09T07:59:33.696Z,19.69
2023-05-09T08:00:33.764Z,19.73
2023-05-09T08:01:33.761Z,19.55
2023-05-09T08:02:33.901Z,19.46
2023-05-09T08:03:33.993Z,19.40
2023-05-09T08:04:33.940Z,19.42
2023-05-09T08:05:33.849Z,19.37
2023-05-09T08:06:33.866Z,19.45
2023-05-09T08:07:33.841Z,19.62
2023-05-09T08:08:33.883Z,19.54
2023-05-09T08:09:34.079Z,19.60
2023-05-09T08:10:33.875Z,19.76
2023-05-09T08:11:33.907Z,19.69
2023-05-09T08:12:33.902Z,19.58
2023-05-09T08:13:34.627Z,19.73
2023-05-09T08:14:34.088Z,19.67
2023-05-09T08:15:34.046Z,19.59
2023-05-09T08:16:34.095Z,19.66
2023-05-09T08:17:33.978Z,19.69
2023-05-09T08:18:34.061Z,19.72
2023-05-09T08:19:34.133Z,19.76
2023-05-09T08:20:34.068Z,19.83
2023-05-09T08:21:34.257Z,20.01
2023-05-09T08:22:34.246Z,20.11
2023-05-09T08:23:34.361Z,20.14
2023-05-09T08:24:34.642Z,20.32
2023-05-09T08:25:34.378Z,20.48
2023-05-09T08:26:34.413Z,20.72
2023-05-09T08:27:34.404Z,20.83
2023-05-09T08:28:34.513Z,20.94
2023-05-09T08:29:34.525Z,21.05
2023-05-09T08:30:34.513Z,21.29
2023-05-09T08:31:34.648Z,21.22
2023-05-09T08:32:34.769Z,21.26
2023-05-09T08:33:34.756Z,21.33
2023-05-09T08:34:35.584Z,21.43
2023-05-09T08:35:35.607Z,21.44
2023-05-09T08:36:34.792Z,21.30
2023-05-09T08:37:34.803Z,21.38
2023-05-09T08:38:34.887Z,21.14
2023-05-09T08:39:35.099Z,20.79
2023-05-09T08:40:34.891Z,20.55
2023-05-09T08:41:35.004Z,20.21
2023-05-09T08:42:35.066Z,20.01
2023-05-09T08:43:35.104Z,20.03
2023-05-09T08:44:35.647Z,20.01
2023-05-09T08:45:35.252Z,19.89
2023-05-09T08:46:35.287Z,19.98
2023-05-09T08:47:35.398Z,20.00
2023-05-09T08:48:36.051Z,19.99
2023-05-09T08:49:35.685Z,19.95
2023-05-09T08:50:35.678Z,20.05
2023-05-09T08:51:35.585Z,20.12
2023-05-09T08:52:35.555Z,20.13
2023-05-09T08:53:35.622Z,19.99
2023-05-09T08:54:36.107Z,19.97
2023-05-09T08:55:35.714Z,20.16
2023-05-09T08:56:35.747Z,20.06
2023-05-09T08:57:35.847Z,20.13
2023-05-09T08:58:35.847Z,20.15
2023-05-09T08:59:35.879Z,20.15
2023-05-09T09:00:35.865Z,20.24
2023-05-09T09:01:36.045Z,20.44
2023-05-09T09:02:35.911Z,20.77
2023-05-09T09:03:35.970Z,21.13
2023-05-09T09:04:36.134Z,21.43
2023-05-09T09:06:36.105Z,21.90
2023-05-09T09:07:36.100Z,22.07
2023-05-09T09:08:36.091Z,22.07
2023-05-09T09:09:36.158Z,22.23
2023-05-09T09:10:36.266Z,22.21
2023-05-09T09:11:36.060Z,22.22
2023-05-09T09:12:36.035Z,22.36
2023-05-09T09:13:36.201Z,22.46
2023-05-09T09:14:36.152Z,22.58
2023-05-09T09:15:36.496Z,22.75
2023-05-09T09:16:36.072Z,22.92
2023-05-09T09:17:36.125Z,22.84
2023-05-09T09:18:36.059Z,22.73
2023-05-09T09:19:36.106Z,22.62
2023-05-09T09:20:35.986Z,22.76
2023-05-09T09:21:36.119Z,22.91
2023-05-09T09:22:36.017Z,23.09
2023-05-09T09:23:36.032Z,23.16
2023-05-09T09:24:36.036Z,23.33
2023-05-09T09:25:36.035Z,23.43
2023-05-09T09:26:35.993Z,23.55
2023-05-09T09:27:35.949Z,23.47
2023-05-09T09:28:35.958Z,23.30
2023-05-09T09:29:35.947Z,23.40
2023-05-09T09:30:36.152Z,23.47
2023-05-09T09:31:35.936Z,23.52
2023-05-09T09:32:35.995Z,23.60
2023-05-09T09:33:35.994Z,23.77
2023-05-09T09:34:35.888Z,23.68
2023-05-09T09:35:35.922Z,23.63
2023-05-09T09:36:35.902Z,23.82
2023-05-09T09:37:35.950Z,23.60
2023-05-09T09:38:35.924Z,23.41
2023-05-09T09:39:35.915Z,23.42
2023-05-09T09:40:36.073Z,23.39
2023-05-09T09:41:35.943Z,23.52
2023-05-09T09:42:36.056Z,23.47
2023-05-09T09:43:36.176Z,23.42
2023-05-09T09:44:36.108Z,23.60
2023-05-09T09:45:36.718Z,23.52
2023-05-09T09:46:36.397Z,23.59
2023-05-09T09:47:36.259Z,23.52
2023-05-09T09:48:36.216Z,23.65
2023-05-09T09:49:36.318Z,23.86
2023-05-09T09:50:37.127Z,24.04
2023-05-09T09:51:36.327Z,24.18
2023-05-09T09:52:36.339Z,24.24
2023-05-09T09:53:36.342Z,24.13
2023-05-09T09:54:36.461Z,24.04
2023-05-09T09:55:36.526Z,24.05
2023-05-09T09:56:36.471Z,24.17
2023-05-09T09:57:36.484Z,24.28
2023-05-09T09:58:36.477Z,24.25
2023-05-09T09:59:36.569Z,23.85
2023-05-09T10:00:36.583Z,23.45
2023-05-09T10:01:36.699Z,23.32
2023-05-09T10:02:36.715Z,23.40
2023-05-09T10:03:36.753Z,23.67
2023-05-09T10:04:36.842Z,24.01
2023-05-09T10:05:36.805Z,24.04
2023-05-09T10:06:36.716Z,24.21
2023-05-09T10:07:36.760Z,24.20
2023-05-09T10:08:36.848Z,24.26
2023-05-09T10:09:36.856Z,24.26
2023-05-09T10:10:36.961Z,24.36
2023-05-09T10:11:36.950Z,24.38
2023-05-09T10:12:36.899Z,24.26
2023-05-09T10:13:36.984Z,24.08
2023-05-09T10:14:38.008Z,24.22
2023-05-09T10:15:49.291Z,24.12
2023-05-09T10:16:43.928Z,24.17
2023-05-09T10:17:38.123Z,24.46
2023-05-09T10:18:37.211Z,24.62
2023-05-09T10:19:36.937Z,24.77
2023-05-09T10:20:37.942Z,24.68
2023-05-09T10:21:38.027Z,24.73
2023-05-09T10:22:36.934Z,24.73
2023-05-09T10:23:36.947Z,24.71
2023-05-09T10:24:36.971Z,24.51
2023-05-09T10:25:37.091Z,24.69
2023-05-09T10:26:36.884Z,24.99
2023-05-09T10:27:36.871Z,25.06
2023-05-09T10:28:36.979Z,25.09
2023-05-09T10:29:36.930Z,25.05
2023-05-09T10:30:36.998Z,25.04
2023-05-09T10:31:37.059Z,24.60
2023-05-09T10:32:37.041Z,24.66
2023-05-09T10:33:37.099Z,24.79
2023-05-09T10:34:37.094Z,24.85
2023-05-09T10:35:37.712Z,24.98
2023-05-09T10:36:37.252Z,25.12
2023-05-09T10:37:38.185Z,25.30
2023-05-09T10:38:38.170Z,25.36
2023-05-09T10:39:37.264Z,25.38
2023-05-09T10:40:37.687Z,25.40
2023-05-09T10:41:37.290Z,25.44
2023-05-09T10:42:37.404Z,25.53
2023-05-09T10:43:37.388Z,25.44
2023-05-09T10:44:37.436Z,25.52
2023-05-09T10:45:37.450Z,25.69
2023-05-09T10:46:37.588Z,25.30
2023-05-09T10:47:37.689Z,25.36
2023-05-09T10:48:37.621Z,25.26
2023-05-09T10:49:37.756Z,24.79
2023-05-09T10:50:37.781Z,24.99
2023-05-09T10:51:37.765Z,25.15
2023-05-09T10:52:37.800Z,25.26
2023-05-09T10:53:37.897Z,25.30
2023-05-09T10:54:37.891Z,25.32
2023-05-09T10:55:37.971Z,25.42
2023-05-09T10:56:37.876Z,25.51
2023-05-09T10:57:37.891Z,25.67
2023-05-09T10:58:37.910Z,25.89
2023-05-09T10:59:38.007Z,26.06
2023-05-09T11:00:38.030Z,26.13
2023-05-09T11:01:38.073Z,26.12
2023-05-09T11:02:38.052Z,26.03
2023-05-09T11:03:38.084Z,26.09
2023-05-09T11:04:38.050Z,26.12
2023-05-09T11:05:38.159Z,26.24
2023-05-09T11:06:38.624Z,26.07
2023-05-09T11:07:38.162Z,25.99
2023-05-09T11:08:38.090Z,25.84
2023-05-09T11:09:38.441Z,25.77
2023-05-09T11:10:38.197Z,25.93
2023-05-09T11:11:38.689Z,26.02
2023-05-09T11:12:38.206Z,26.18
2023-05-09T11:13:38.316Z,26.36
2023-05-09T11:14:38.352Z,26.45
2023-05-09T11:15:38.268Z,26.43
2023-05-09T11:16:38.711Z,26.35
2023-05-09T11:17:38.523Z,26.35
2023-05-09T11:18:38.624Z,26.50
2023-05-09T11:19:38.583Z,26.66
2023-05-09T11:20:38.573Z,26.43
2023-05-09T11:21:38.606Z,26.12
2023-05-09T11:22:39.210Z,26.12
2023-05-09T11:23:38.580Z,26.21
2023-05-09T11:24:38.714Z,26.16
2023-05-09T11:25:39.239Z,26.09
2023-05-09T11:26:40.157Z,26.10
2023-05-09T11:27:38.811Z,26.17
2023-05-09T11:28:38.961Z,26.22
2023-05-09T11:29:38.936Z,26.20
2023-05-09T11:30:38.965Z,26.46
2023-05-09T11:31:39.193Z,26.58
2023-05-09T11:32:39.126Z,26.61
2023-05-09T11:33:39.191Z,26.52
2023-05-09T11:34:39.189Z,26.58
2023-05-09T11:35:39.645Z,26.74
2023-05-09T11:36:39.286Z,26.72
2023-05-09T11:37:39.334Z,26.82
2023-05-09T11:38:39.248Z,26.89
2023-05-09T11:39:39.333Z,27.04
2023-05-09T11:40:39.420Z,27.14
2023-05-09T11:41:39.561Z,27.28
2023-05-09T11:42:39.479Z,27.42
2023-05-09T11:43:39.528Z,27.27
2023-05-09T11:44:39.559Z,27.30
2023-05-09T11:45:39.689Z,27.25
2023-05-09T11:46:40.125Z,27.33
2023-05-09T11:47:39.728Z,27.31
2023-05-09T11:48:39.712Z,27.18
2023-05-09T11:49:39.782Z,27.09
2023-05-09T11:50:39.720Z,27.02
2023-05-09T11:51:39.749Z,26.88
2023-05-09T11:52:39.731Z,27.01
2023-05-09T11:53:39.747Z,27.27
2023-05-09T11:54:39.847Z,27.48
2023-05-09T11:55:39.878Z,27.55
2023-05-09T11:56:39.880Z,27.42
2023-05-09T11:57:39.868Z,27.57
2023-05-09T11:58:39.871Z,27.69
2023-05-09T11:59:39.862Z,27.94
2023-05-09T12:00:39.797Z,28.03
2023-05-09T12:01:39.813Z,27.90
2023-05-09T12:02:39.941Z,28.01
2023-05-09T12:03:39.915Z,27.56
2023-05-09T12:04:39.950Z,27.57
2023-05-09T12:05:39.811Z,27.68
2023-05-09T12:06:39.807Z,27.70
2023-05-09T12:07:39.826Z,27.53
2023-05-09T12:08:39.794Z,27.44
2023-05-09T12:09:39.826Z,27.54
2023-05-09T12:10:39.844Z,27.63
2023-05-09T12:11:39.932Z,27.73
2023-05-09T12:12:39.958Z,27.60
2023-05-09T12:13:40.071Z,27.67
2023-05-09T12:14:40.063Z,27.87
2023-05-09T12:15:40.241Z,27.77
2023-05-09T12:16:40.303Z,27.64
2023-05-09T12:17:40.262Z,27.77
2023-05-09T12:18:40.232Z,27.82
2023-05-09T12:19:40.310Z,27.97
2023-05-09T12:20:40.375Z,27.87
2023-05-09T12:21:41.153Z,27.49
2023-05-09T12:22:40.432Z,27.49
2023-05-09T12:23:40.436Z,27.45
2023-05-09T12:24:40.472Z,27.43
2023-05-09T12:25:40.488Z,27.42
2023-05-09T12:26:40.551Z,27.50
2023-05-09T12:27:40.605Z,27.60
2023-05-09T12:28:40.571Z,27.72
2023-05-09T12:29:40.639Z,27.63
2023-05-09T12:30:40.618Z,27.41
2023-05-09T12:31:40.742Z,27.32
2023-05-09T12:32:40.745Z,27.30
2023-05-09T12:33:40.625Z,27.23
2023-05-09T12:34:40.732Z,27.42
2023-05-09T12:35:40.870Z,27.59
2023-05-09T12:36:40.830Z,27.61
2023-05-09T12:37:40.829Z,27.68
2023-05-09T12:38:40.882Z,27.74
2023-05-09T12:39:40.827Z,27.86
2023-05-09T12:40:41.151Z,27.89
2023-05-09T12:41:49.858Z,27.97
2023-05-09T12:42:41.830Z,28.10
2023-05-09T12:43:40.819Z,28.23
2023-05-09T12:44:40.812Z,28.28
2023-05-09T12:45:40.914Z,28.06
2023-05-09T12:46:40.854Z,28.01
2023-05-09T12:47:40.815Z,28.07
2023-05-09T12:48:40.810Z,28.08
2023-05-09T12:49:40.803Z,28.08
2023-05-09T12:50:40.837Z,28.06
2023-05-09T12:51:40.864Z,28.02
2023-05-09T12:52:50.654Z,28.17
2023-05-09T12:53:41.782Z,28.35
2023-05-09T12:54:40.753Z,28.30
2023-05-09T12:55:40.769Z,28.21
2023-05-09T12:56:40.742Z,28.16